sensor_id;sensor_type;location;lat;lon;timestamp;pressure;altitude;pressure_sealevel;temperature;humidity
54306;BME280;66145;45.188;5.712;2024-03-08T00:00:17;98728.69;;;20.20;37.60
54306;BME280;66145;45.188;5.712;2024-03-08T00:02:46;98752.97;;;20.31;37.46
54306;BME280;66145;45.188;5.712;2024-03-08T00:05:12;98751.84;;;20.32;37.53
54306;BME280;66145;45.188;5.712;2024-03-08T00:07:38;98743.69;;;20.23;37.63
54306;BME280;66145;45.188;5.712;2024-03-08T00:10:08;98752.03;;;20.27;37.46
54306;BME280;66145;45.188;5.712;2024-03-08T00:12:39;98759.25;;;20.31;37.63
54306;BME280;66145;45.188;5.712;2024-03-08T00:15:08;98748.63;;;20.30;37.59
54306;BME280;66145;45.188;5.712;2024-03-08T00:17:34;98749.09;;;20.32;37.41
54306;BME280;66145;45.188;5.712;2024-03-08T00:20:00;98757.13;;;20.37;37.47
54306;BME280;66145;45.188;5.712;2024-03-08T00:22:25;98733.16;;;20.25;37.44
54306;BME280;66145;45.188;5.712;2024-03-08T00:24:50;98726.53;;;20.26;37.62
54306;BME280;66145;45.188;5.712;2024-03-08T00:27:16;98740.50;;;20.33;37.67
54306;BME280;66145;45.188;5.712;2024-03-08T00:29:41;98745.34;;;20.36;37.65
54306;BME280;66145;45.188;5.712;2024-03-08T00:32:07;98717.72;;;20.20;37.49
54306;BME280;66145;45.188;5.712;2024-03-08T00:34:35;98699.25;;;20.09;37.62
54306;BME280;66145;45.188;5.712;2024-03-08T00:37:02;98743.53;;;20.41;37.50
54306;BME280;66145;45.188;5.712;2024-03-08T00:39:27;98741.91;;;20.40;37.74
54306;BME280;66145;45.188;5.712;2024-03-08T00:41:53;98733.69;;;20.40;37.34
54306;BME280;66145;45.188;5.712;2024-03-08T00:44:18;98727.06;;;20.41;37.44
54306;BME280;66145;45.188;5.712;2024-03-08T00:46:43;98723.47;;;20.40;37.43
54306;BME280;66145;45.188;5.712;2024-03-08T00:49:09;98717.19;;;20.40;37.30
54306;BME280;66145;45.188;5.712;2024-03-08T00:51:34;98715.13;;;20.36;37.46
54306;BME280;66145;45.188;5.712;2024-03-08T00:54:01;98714.78;;;20.38;37.43
54306;BME280;66145;45.188;5.712;2024-03-08T00:56:26;98718.69;;;20.37;37.47
54306;BME280;66145;45.188;5.712;2024-03-08T00:58:51;98708.84;;;20.36;37.42
54306;BME280;66145;45.188;5.712;2024-03-08T01:01:18;98693.13;;;20.24;37.62
54306;BME280;66145;45.188;5.712;2024-03-08T01:03:44;98703.78;;;20.38;37.40
54306;BME280;66145;45.188;5.712;2024-03-08T01:06:09;98680.19;;;20.25;37.33
54306;BME280;66145;45.188;5.712;2024-03-08T01:08:36;98689.47;;;20.32;37.52
54306;BME280;66145;45.188;5.712;2024-03-08T01:11:04;98683.50;;;20.30;37.44
54306;BME280;66145;45.188;5.712;2024-03-08T01:13:30;98670.22;;;20.20;37.51
54306;BME280;66145;45.188;5.712;2024-03-08T01:15:55;98694.66;;;20.34;37.59
54306;BME280;66145;45.188;5.712;2024-03-08T01:18:21;98689.47;;;20.32;37.52
54306;BME280;66145;45.188;5.712;2024-03-08T01:20:46;98674.94;;;20.32;37.29
54306;BME280;66145;45.188;5.712;2024-03-08T01:23:12;98646.25;;;20.08;37.83
54306;BME280;66145;45.188;5.712;2024-03-08T01:25:37;98668.41;;;20.24;37.33
54306;BME280;66145;45.188;5.712;2024-03-08T01:28:03;98691.53;;;20.35;37.43
54306;BME280;66145;45.188;5.712;2024-03-08T01:30:28;98678.38;;;20.29;37.27
54306;BME280;66145;45.188;5.712;2024-03-08T01:32:53;98669.00;;;20.30;37.53
54306;BME280;66145;45.188;5.712;2024-03-08T01:35:19;98672.66;;;20.34;37.44
54306;BME280;66145;45.188;5.712;2024-03-08T01:37:46;98651.56;;;20.26;37.40
54306;BME280;66145;45.188;5.712;2024-03-08T01:40:13;98662.94;;;20.36;37.18
54306;BME280;66145;45.188;5.712;2024-03-08T01:42:39;98654.47;;;20.29;37.45
54306;BME280;66145;45.188;5.712;2024-03-08T01:45:08;98664.44;;;20.34;37.29
54306;BME280;66145;45.188;5.712;2024-03-08T01:47:34;98666.28;;;20.42;37.52
54306;BME280;66145;45.188;5.712;2024-03-08T01:50:01;98642.09;;;20.35;37.48
54306;BME280;66145;45.188;5.712;2024-03-08T01:52:29;98643.25;;;20.34;37.64
54306;BME280;66145;45.188;5.712;2024-03-08T01:54:58;98641.44;;;20.39;37.82
54306;BME280;66145;45.188;5.712;2024-03-08T01:57:26;98651.50;;;20.47;37.84
54306;BME280;66145;45.188;5.712;2024-03-08T01:59:52;98625.75;;;20.39;37.81
54306;BME280;66145;45.188;5.712;2024-03-08T02:02:20;98655.53;;;20.49;38.06
54306;BME280;66145;45.188;5.712;2024-03-08T02:04:45;98638.91;;;20.46;38.28
54306;BME280;66145;45.188;5.712;2024-03-08T02:07:11;98617.28;;;20.44;38.24
54306;BME280;66145;45.188;5.712;2024-03-08T02:09:36;98626.00;;;20.46;37.66
54306;BME280;66145;45.188;5.712;2024-03-08T02:12:02;98623.59;;;20.45;38.10
54306;BME280;66145;45.188;5.712;2024-03-08T02:14:27;98622.44;;;20.46;38.16
54306;BME280;66145;45.188;5.712;2024-03-08T02:16:53;98615.00;;;20.46;38.01
54306;BME280;66145;45.188;5.712;2024-03-08T02:19:19;98619.25;;;20.44;38.14
54306;BME280;66145;45.188;5.712;2024-03-08T02:21:46;98589.34;;;20.30;38.08
54306;BME280;66145;45.188;5.712;2024-03-08T02:24:12;98573.09;;;20.25;38.36
54306;BME280;66145;45.188;5.712;2024-03-08T02:26:38;98600.34;;;20.42;38.53
54306;BME280;66145;45.188;5.712;2024-03-08T02:29:03;98603.91;;;20.43;38.32
54306;BME280;66145;45.188;5.712;2024-03-08T02:31:29;98548.47;;;20.16;38.30
54306;BME280;66145;45.188;5.712;2024-03-08T02:33:54;98594.53;;;20.44;38.21
54306;BME280;66145;45.188;5.712;2024-03-08T02:36:20;98550.22;;;20.20;38.30
54306;BME280;66145;45.188;5.712;2024-03-08T02:38:46;98576.19;;;20.35;38.20
54306;BME280;66145;45.188;5.712;2024-03-08T02:41:12;98586.16;;;20.40;38.12
54306;BME280;66145;45.188;5.712;2024-03-08T02:43:37;98587.75;;;20.41;38.30
54306;BME280;66145;45.188;5.712;2024-03-08T02:46:03;98583.53;;;20.44;38.14
54306;BME280;66145;45.188;5.712;2024-03-08T02:48:30;98575.16;;;20.40;38.38
54306;BME280;66145;45.188;5.712;2024-03-08T02:50:55;98574.94;;;20.45;38.45
54306;BME280;66145;45.188;5.712;2024-03-08T02:53:21;98571.75;;;20.43;38.33
54306;BME280;66145;45.188;5.712;2024-03-08T02:55:47;98533.50;;;20.26;38.39
54306;BME280;66145;45.188;5.712;2024-03-08T02:58:12;98558.69;;;20.40;37.90
54306;BME280;66145;45.188;5.712;2024-03-08T03:00:39;98561.22;;;20.45;38.21
54306;BME280;66145;45.188;5.712;2024-03-08T03:03:06;98570.94;;;20.43;38.40
54306;BME280;66145;45.188;5.712;2024-03-08T03:05:31;98562.34;;;20.32;38.21
54306;BME280;66145;45.188;5.712;2024-03-08T03:07:57;98565.47;;;20.43;38.25
54306;BME280;66145;45.188;5.712;2024-03-08T03:10:23;98558.56;;;20.36;38.27
54306;BME280;66145;45.188;5.712;2024-03-08T03:12:49;98551.47;;;20.35;38.35
54306;BME280;66145;45.188;5.712;2024-03-08T03:15:14;98561.56;;;20.44;38.47
54306;BME280;66145;45.188;5.712;2024-03-08T03:17:45;98556.50;;;20.46;38.55
54306;BME280;66145;45.188;5.712;2024-03-08T03:20:11;98540.84;;;20.34;38.34
54306;BME280;66145;45.188;5.712;2024-03-08T03:22:42;98541.06;;;20.41;38.26
54306;BME280;66145;45.188;5.712;2024-03-08T03:25:12;98543.13;;;20.44;38.49
54306;BME280;66145;45.188;5.712;2024-03-08T03:27:37;98533.06;;;20.36;38.34
54306;BME280;66145;45.188;5.712;2024-03-08T03:30:04;98525.63;;;20.36;38.25
54306;BME280;66145;45.188;5.712;2024-03-08T03:32:49;98512.69;;;20.37;38.39
54306;BME280;66145;45.188;5.712;2024-03-08T03:35:17;98479.84;;;20.16;38.23
54306;BME280;66145;45.188;5.712;2024-03-08T03:37:42;98520.69;;;20.42;38.18
54306;BME280;66145;45.188;5.712;2024-03-08T03:40:11;98521.97;;;20.45;37.97
54306;BME280;66145;45.188;5.712;2024-03-08T03:42:36;98522.97;;;20.40;38.10
54306;BME280;66145;45.188;5.712;2024-03-08T03:45:05;98513.84;;;20.36;38.49
54306;BME280;66145;45.188;5.712;2024-03-08T03:47:30;98527.00;;;20.43;38.22
54306;BME280;66145;45.188;5.712;2024-03-08T03:49:55;98529.41;;;20.44;38.22
54306;BME280;66145;45.188;5.712;2024-03-08T03:52:21;98512.69;;;20.37;38.31
54306;BME280;66145;45.188;5.712;2024-03-08T03:54:46;98518.75;;;20.43;38.28
54306;BME280;66145;45.188;5.712;2024-03-08T03:57:12;98503.66;;;20.36;38.40
54306;BME280;66145;45.188;5.712;2024-03-08T03:59:37;98511.78;;;20.45;38.45
54306;BME280;66145;45.188;5.712;2024-03-08T04:02:03;98501.00;;;20.40;38.45
54306;BME280;66145;45.188;5.712;2024-03-08T04:04:29;98472.41;;;20.29;38.61
54306;BME280;66145;45.188;5.712;2024-03-08T04:06:54;98499.53;;;20.43;38.60
54306;BME280;66145;45.188;5.712;2024-03-08T04:09:20;98487.06;;;20.33;38.61
54306;BME280;66145;45.188;5.712;2024-03-08T04:11:47;98493.91;;;20.39;38.34
54306;BME280;66145;45.188;5.712;2024-03-08T04:14:13;98503.88;;;20.44;38.51
54306;BME280;66145;45.188;5.712;2024-03-08T04:16:38;98492.91;;;20.44;38.42
54306;BME280;66145;45.188;5.712;2024-03-08T04:19:03;98484.06;;;20.38;38.52
54306;BME280;66145;45.188;5.712;2024-03-08T04:21:32;98485.56;;;20.35;38.65
54306;BME280;66145;45.188;5.712;2024-03-08T04:23:58;98501.13;;;20.44;38.38
54306;BME280;66145;45.188;5.712;2024-03-08T04:26:23;98491.28;;;20.43;38.54
54306;BME280;66145;45.188;5.712;2024-03-08T04:28:48;98488.88;;;20.41;38.44
54306;BME280;66145;45.188;5.712;2024-03-08T04:31:14;98488.09;;;20.41;38.62
54306;BME280;66145;45.188;5.712;2024-03-08T04:33:40;98478.00;;;20.32;38.66
54306;BME280;66145;45.188;5.712;2024-03-08T04:36:06;98490.03;;;20.40;38.40
54306;BME280;66145;45.188;5.712;2024-03-08T04:38:33;98488.41;;;20.39;38.35
54306;BME280;66145;45.188;5.712;2024-03-08T04:40:59;98484.88;;;20.39;38.61
54306;BME280;66145;45.188;5.712;2024-03-08T04:43:25;98484.78;;;20.35;38.51
54306;BME280;66145;45.188;5.712;2024-03-08T04:45:51;98462.25;;;20.29;38.45
54306;BME280;66145;45.188;5.712;2024-03-08T04:48:17;98460.97;;;20.27;38.42
54306;BME280;66145;45.188;5.712;2024-03-08T04:50:42;98470.91;;;20.31;38.59
54306;BME280;66145;45.188;5.712;2024-03-08T04:53:10;98476.19;;;20.36;38.60
54306;BME280;66145;45.188;5.712;2024-03-08T04:55:35;98481.00;;;20.40;38.63
54306;BME280;66145;45.188;5.712;2024-03-08T04:58:00;98474.25;;;20.37;38.66
54306;BME280;66145;45.188;5.712;2024-03-08T05:00:25;98458.56;;;20.38;38.62
54306;BME280;66145;45.188;5.712;2024-03-08T05:02:51;98444.16;;;20.28;38.40
54306;BME280;66145;45.188;5.712;2024-03-08T05:05:18;98463.50;;;20.32;38.72
54306;BME280;66145;45.188;5.712;2024-03-08T05:07:44;98463.94;;;20.34;38.69
54306;BME280;66145;45.188;5.712;2024-03-08T05:10:10;98466.44;;;20.39;38.52
54306;BME280;66145;45.188;5.712;2024-03-08T05:12:36;98455.72;;;20.34;38.51
54306;BME280;66145;45.188;5.712;2024-03-08T05:15:04;98451.47;;;20.36;38.43
54306;BME280;66145;45.188;5.712;2024-03-08T05:17:30;98453.53;;;20.40;38.39
54306;BME280;66145;45.188;5.712;2024-03-08T05:19:55;98448.13;;;20.43;38.22
54306;BME280;66145;45.188;5.712;2024-03-08T05:22:21;98437.06;;;20.40;38.23
54306;BME280;66145;45.188;5.712;2024-03-08T05:24:46;98456.47;;;20.47;38.16
54306;BME280;66145;45.188;5.712;2024-03-08T05:27:11;98452.50;;;20.44;38.16
54306;BME280;66145;45.188;5.712;2024-03-08T05:29:38;98438.28;;;20.42;38.30
54306;BME280;66145;45.188;5.712;2024-03-08T05:32:03;98454.31;;;20.52;38.06
54306;BME280;66145;45.188;5.712;2024-03-08T05:34:29;98432.34;;;20.40;37.95
54306;BME280;66145;45.188;5.712;2024-03-08T05:36:55;98443.22;;;20.49;38.12
54306;BME280;66145;45.188;5.712;2024-03-08T05:39:20;98451.13;;;20.50;38.25
54306;BME280;66145;45.188;5.712;2024-03-08T05:41:46;98410.94;;;20.33;38.06
54306;BME280;66145;45.188;5.712;2024-03-08T05:44:11;98431.19;;;20.41;38.24
54306;BME280;66145;45.188;5.712;2024-03-08T05:46:37;98442.75;;;20.47;38.24
54306;BME280;66145;45.188;5.712;2024-03-08T05:49:06;98429.59;;;20.40;38.53
54306;BME280;66145;45.188;5.712;2024-03-08T05:51:36;98431.91;;;20.26;38.67
54306;BME280;66145;45.188;5.712;2024-03-08T05:54:09;98448.59;;;20.45;38.02
54306;BME280;66145;45.188;5.712;2024-03-08T05:56:35;98441.97;;;20.46;37.80
54306;BME280;66145;45.188;5.712;2024-03-08T05:59:01;98411.31;;;20.32;38.10
54306;BME280;66145;45.188;5.712;2024-03-08T06:01:27;98456.94;;;20.61;38.10
54306;BME280;66145;45.188;5.712;2024-03-08T06:03:53;98448.81;;;20.65;38.08
54306;BME280;66145;45.188;5.712;2024-03-08T06:06:21;98446.72;;;20.74;37.64
54306;BME280;66145;45.188;5.712;2024-03-08T06:08:48;98443.06;;;20.83;37.48
54306;BME280;66145;45.188;5.712;2024-03-08T06:11:18;98430.47;;;20.81;37.66
54306;BME280;66145;45.188;5.712;2024-03-08T06:13:44;98458.69;;;21.07;37.47
54306;BME280;66145;45.188;5.712;2024-03-08T06:16:10;98440.81;;;21.01;37.41
54306;BME280;66145;45.188;5.712;2024-03-08T06:18:35;98427.72;;;21.10;37.32
54306;BME280;66145;45.188;5.712;2024-03-08T06:21:08;98443.38;;;21.22;37.31
54306;BME280;66145;45.188;5.712;2024-03-08T06:23:37;98455.91;;;21.35;37.24
54306;BME280;66145;45.188;5.712;2024-03-08T06:26:05;98443.31;;;21.34;36.97
54306;BME280;66145;45.188;5.712;2024-03-08T06:28:31;98453.47;;;21.46;37.03
54306;BME280;66145;45.188;5.712;2024-03-08T06:31:00;98438.38;;;21.40;36.80
54306;BME280;66145;45.188;5.712;2024-03-08T06:33:26;98444.88;;;21.48;36.84
54306;BME280;66145;45.188;5.712;2024-03-08T06:35:52;98428.63;;;21.42;36.80
54306;BME280;66145;45.188;5.712;2024-03-08T06:38:18;98451.13;;;21.61;36.49
54306;BME280;66145;45.188;5.712;2024-03-08T06:40:44;98435.19;;;21.54;36.71
54306;BME280;66145;45.188;5.712;2024-03-08T06:43:12;98459.56;;;21.68;36.52
54306;BME280;66145;45.188;5.712;2024-03-08T06:45:41;98449.81;;;21.70;36.57
54306;BME280;66145;45.188;5.712;2024-03-08T06:48:06;98441.22;;;21.72;36.42
54306;BME280;66145;45.188;5.712;2024-03-08T06:50:34;98411.09;;;21.63;36.21
54306;BME280;66145;45.188;5.712;2024-03-08T06:53:01;98440.13;;;21.77;36.34
54306;BME280;66145;45.188;5.712;2024-03-08T06:55:28;98429.03;;;21.73;36.05
54306;BME280;66145;45.188;5.712;2024-03-08T06:57:54;98412.25;;;21.62;36.06
54306;BME280;66145;45.188;5.712;2024-03-08T07:00:19;98438.00;;;21.86;36.21
54306;BME280;66145;45.188;5.712;2024-03-08T07:02:46;98424.41;;;21.77;36.35
54306;BME280;66145;45.188;5.712;2024-03-08T07:05:11;98436.94;;;21.91;36.12
54306;BME280;66145;45.188;5.712;2024-03-08T07:07:37;98420.72;;;21.57;36.15
54306;BME280;66145;45.188;5.712;2024-03-08T07:10:02;98429.63;;;21.66;35.69
54306;BME280;66145;45.188;5.712;2024-03-08T07:12:28;98409.66;;;21.69;35.61
54306;BME280;66145;45.188;5.712;2024-03-08T07:14:53;98433.47;;;21.94;35.56
54306;BME280;66145;45.188;5.712;2024-03-08T07:17:19;98414.03;;;21.86;35.53
54306;BME280;66145;45.188;5.712;2024-03-08T07:19:44;98417.41;;;21.96;35.51
54306;BME280;66145;45.188;5.712;2024-03-08T07:22:10;98407.19;;;21.96;35.62
54306;BME280;66145;45.188;5.712;2024-03-08T07:24:36;98421.94;;;22.04;35.50
54306;BME280;66145;45.188;5.712;2024-03-08T07:27:02;98405.75;;;22.02;35.41
54306;BME280;66145;45.188;5.712;2024-03-08T07:29:27;98419.59;;;22.22;35.44
54306;BME280;66145;45.188;5.712;2024-03-08T07:31:53;98418.44;;;22.23;35.48
54306;BME280;66145;45.188;5.712;2024-03-08T07:34:43;98403.34;;;22.17;35.54
54306;BME280;66145;45.188;5.712;2024-03-08T07:37:08;98398.66;;;22.17;35.59
54306;BME280;66145;45.188;5.712;2024-03-08T07:39:39;98393.47;;;22.16;35.61
54306;BME280;66145;45.188;5.712;2024-03-08T07:42:05;98397.56;;;22.22;35.64
54306;BME280;66145;45.188;5.712;2024-03-08T07:44:30;98382.03;;;22.14;35.87
54306;BME280;66145;45.188;5.712;2024-03-08T07:46:57;98390.72;;;22.16;35.82
54306;BME280;66145;45.188;5.712;2024-03-08T07:49:23;98410.81;;;22.16;35.97
54306;BME280;66145;45.188;5.712;2024-03-08T07:51:49;98408.31;;;22.11;35.89
54306;BME280;66145;45.188;5.712;2024-03-08T07:54:15;98390.84;;;22.03;35.85
54306;BME280;66145;45.188;5.712;2024-03-08T07:56:40;98391.53;;;22.00;36.08
54306;BME280;66145;45.188;5.712;2024-03-08T07:59:05;98353.38;;;21.83;35.80
54306;BME280;66145;45.188;5.712;2024-03-08T08:01:31;98381.78;;;22.03;35.93
54306;BME280;66145;45.188;5.712;2024-03-08T08:03:58;98360.03;;;21.98;35.87
54306;BME280;66145;45.188;5.712;2024-03-08T08:06:23;98361.00;;;22.06;35.79
54306;BME280;66145;45.188;5.712;2024-03-08T08:08:50;98380.53;;;22.16;35.74
54306;BME280;66145;45.188;5.712;2024-03-08T08:11:16;98363.47;;;22.11;35.92
54306;BME280;66145;45.188;5.712;2024-03-08T08:13:41;98366.81;;;22.20;35.76
54306;BME280;66145;45.188;5.712;2024-03-08T08:16:09;98356.69;;;22.24;35.76
54306;BME280;66145;45.188;5.712;2024-03-08T08:18:35;98350.16;;;22.13;35.76
54306;BME280;66145;45.188;5.712;2024-03-08T08:21:02;98350.94;;;22.13;35.73
54306;BME280;66145;45.188;5.712;2024-03-08T08:23:28;98349.13;;;22.21;35.59
54306;BME280;66145;45.188;5.712;2024-03-08T08:25:54;98340.88;;;22.21;35.53
54306;BME280;66145;45.188;5.712;2024-03-08T08:28:20;98324.47;;;22.09;35.11
54306;BME280;66145;45.188;5.712;2024-03-08T08:30:46;98344.06;;;22.23;35.49
54306;BME280;66145;45.188;5.712;2024-03-08T08:33:11;98332.63;;;22.21;35.58
54306;BME280;66145;45.188;5.712;2024-03-08T08:35:37;98327.63;;;22.27;35.14
54306;BME280;66145;45.188;5.712;2024-03-08T08:38:06;98320.81;;;22.21;35.45
54306;BME280;66145;45.188;5.712;2024-03-08T08:40:33;98289.09;;;21.75;35.66
54306;BME280;66145;45.188;5.712;2024-03-08T08:42:59;98329.94;;;21.89;35.92
54306;BME280;66145;45.188;5.712;2024-03-08T08:45:25;98306.09;;;21.61;35.26
54306;BME280;66145;45.188;5.712;2024-03-08T08:47:50;98317.06;;;21.77;34.37
54306;BME280;66145;45.188;5.712;2024-03-08T08:50:15;98315.22;;;21.81;34.67
54306;BME280;66145;45.188;5.712;2024-03-08T08:52:41;98311.22;;;21.79;34.68
54306;BME280;66145;45.188;5.712;2024-03-08T08:55:10;98317.25;;;21.84;34.47
54306;BME280;66145;45.188;5.712;2024-03-08T08:57:40;98321.22;;;21.87;34.83
54306;BME280;66145;45.188;5.712;2024-03-08T09:00:05;98322.50;;;21.90;34.41
54306;BME280;66145;45.188;5.712;2024-03-08T09:02:35;98323.66;;;21.88;34.83
54306;BME280;66145;45.188;5.712;2024-03-08T09:05:02;98304.03;;;21.74;35.12
54306;BME280;66145;45.188;5.712;2024-03-08T09:07:28;98306.56;;;21.83;34.47
54306;BME280;66145;45.188;5.712;2024-03-08T09:09:53;98306.63;;;22.02;34.72
54306;BME280;66145;45.188;5.712;2024-03-08T09:12:22;98293.28;;;22.21;34.21
54306;BME280;66145;45.188;5.712;2024-03-08T09:14:48;98277.53;;;22.21;34.63
54306;BME280;66145;45.188;5.712;2024-03-08T09:17:14;98289.88;;;22.27;34.88
54306;BME280;66145;45.188;5.712;2024-03-08T09:19:42;98281.16;;;22.25;34.77
54306;BME280;66145;45.188;5.712;2024-03-08T09:22:08;98264.91;;;22.20;34.82
54306;BME280;66145;45.188;5.712;2024-03-08T09:24:33;98238.25;;;22.05;35.24
54306;BME280;66145;45.188;5.712;2024-03-08T09:26:59;98250.09;;;21.89;35.88
54306;BME280;66145;45.188;5.712;2024-03-08T09:29:24;98253.13;;;21.84;36.56
54306;BME280;66145;45.188;5.712;2024-03-08T09:31:49;98245.25;;;21.82;36.43
54306;BME280;66145;45.188;5.712;2024-03-08T09:34:15;98195.56;;;21.59;36.39
54306;BME280;66145;45.188;5.712;2024-03-08T09:36:40;98233.06;;;21.83;36.65
54306;BME280;66145;45.188;5.712;2024-03-08T09:39:06;98230.31;;;21.83;36.70
54306;BME280;66145;45.188;5.712;2024-03-08T09:41:33;98224.09;;;21.86;36.48
54306;BME280;66145;45.188;5.712;2024-03-08T09:43:59;98226.22;;;21.93;36.41
54306;BME280;66145;45.188;5.712;2024-03-08T09:46:25;98223.53;;;21.97;36.29
54306;BME280;66145;45.188;5.712;2024-03-08T09:48:52;98208.81;;;21.89;36.34
54306;BME280;66145;45.188;5.712;2024-03-08T09:51:21;98216.59;;;22.03;36.12
54306;BME280;66145;45.188;5.712;2024-03-08T09:53:51;98231.66;;;22.09;35.93
54306;BME280;66145;45.188;5.712;2024-03-08T09:56:19;98203.97;;;22.02;36.16
54306;BME280;66145;45.188;5.712;2024-03-08T09:58:44;98213.97;;;22.10;36.35
54306;BME280;66145;45.188;5.712;2024-03-08T10:01:45;98201.22;;;22.02;36.16
54306;BME280;66145;45.188;5.712;2024-03-08T10:04:11;98193.03;;;22.06;36.49
54306;BME280;66145;45.188;5.712;2024-03-08T10:06:37;98192.66;;;22.07;36.34
54306;BME280;66145;45.188;5.712;2024-03-08T10:09:02;98211.81;;;22.20;36.33
54306;BME280;66145;45.188;5.712;2024-03-08T10:11:27;98185.56;;;22.06;36.34
54306;BME280;66145;45.188;5.712;2024-03-08T10:13:54;98219.31;;;22.23;36.25
54306;BME280;66145;45.188;5.712;2024-03-08T10:16:19;98206.19;;;22.16;36.16
54306;BME280;66145;45.188;5.712;2024-03-08T10:18:45;98197.16;;;22.15;36.29
54306;BME280;66145;45.188;5.712;2024-03-08T10:21:11;98177.00;;;22.11;36.36
54306;BME280;66145;45.188;5.712;2024-03-08T10:23:37;98183.09;;;22.21;36.06
54306;BME280;66145;45.188;5.712;2024-03-08T10:26:16;98192.22;;;22.25;35.97
54306;BME280;66145;45.188;5.712;2024-03-08T10:28:46;98164.22;;;22.23;36.04
54306;BME280;66145;45.188;5.712;2024-03-08T10:31:16;98170.34;;;22.32;35.74
54306;BME280;66145;45.188;5.712;2024-03-08T10:33:42;98158.00;;;22.26;35.94
54306;BME280;66145;45.188;5.712;2024-03-08T10:36:08;98176.34;;;22.38;35.93
54306;BME280;66145;45.188;5.712;2024-03-08T10:38:39;98176.56;;;22.48;35.77
54306;BME280;66145;45.188;5.712;2024-03-08T10:41:06;98158.94;;;22.53;35.64
54306;BME280;66145;45.188;5.712;2024-03-08T10:43:40;98144.19;;;22.42;35.70
54306;BME280;66145;45.188;5.712;2024-03-08T10:46:30;98155.81;;;22.55;36.03
54306;BME280;66145;45.188;5.712;2024-03-08T10:49:00;98153.81;;;22.52;35.55
54306;BME280;66145;45.188;5.712;2024-03-08T10:51:30;98171.69;;;22.61;35.76
54306;BME280;66145;45.188;5.712;2024-03-08T10:53:57;98157.28;;;22.48;35.77
54306;BME280;66145;45.188;5.712;2024-03-08T10:56:23;98166.19;;;22.61;35.78
54306;BME280;66145;45.188;5.712;2024-03-08T10:58:48;98166.59;;;22.63;35.73
54306;BME280;66145;45.188;5.712;2024-03-08T11:01:14;98169.44;;;22.67;35.63
54306;BME280;66145;45.188;5.712;2024-03-08T11:06:57;98166.91;;;22.82;35.35
54306;BME280;66145;45.188;5.712;2024-03-08T11:08:57;98147.63;;;22.82;35.58
54306;BME280;66145;45.188;5.712;2024-03-08T11:11:32;98143.44;;;22.91;35.25
54306;BME280;66145;45.188;5.712;2024-03-08T11:14:00;98134.00;;;22.92;35.25
54306;BME280;66145;45.188;5.712;2024-03-08T11:19:07;98143.53;;;22.99;35.25
54306;BME280;66145;45.188;5.712;2024-03-08T11:21:57;98140.91;;;23.06;35.24
54306;BME280;66145;45.188;5.712;2024-03-08T11:24:23;98134.97;;;23.04;35.16
54306;BME280;66145;45.188;5.712;2024-03-08T11:26:48;98129.81;;;23.02;35.47
54306;BME280;66145;45.188;5.712;2024-03-08T11:32:17;98123.94;;;23.04;35.19
54306;BME280;66145;45.188;5.712;2024-03-08T11:34:48;98121.19;;;23.04;35.07
54306;BME280;66145;45.188;5.712;2024-03-08T11:37:16;98125.84;;;23.00;35.22
54306;BME280;66145;45.188;5.712;2024-03-08T11:39:53;98111.53;;;22.90;35.33
54306;BME280;66145;45.188;5.712;2024-03-08T11:42:26;98102.88;;;22.92;35.32
54306;BME280;66145;45.188;5.712;2024-03-08T11:44:53;98107.91;;;22.86;35.34
54306;BME280;66145;45.188;5.712;2024-03-08T11:47:19;98097.63;;;22.83;35.62
54306;BME280;66145;45.188;5.712;2024-03-08T11:49:45;98044.72;;;22.74;35.61
54306;BME280;66145;45.188;5.712;2024-03-08T11:52:13;98052.56;;;22.72;35.69
54306;BME280;66145;45.188;5.712;2024-03-08T11:54:43;98032.72;;;22.62;35.73
54306;BME280;66145;45.188;5.712;2024-03-08T11:57:12;98026.97;;;22.48;35.80
54306;BME280;66145;45.188;5.712;2024-03-08T11:59:38;98025.38;;;22.47;35.93
54306;BME280;66145;45.188;5.712;2024-03-08T12:02:04;98034.56;;;22.31;36.51
54306;BME280;66145;45.188;5.712;2024-03-08T12:04:31;98020.78;;;22.08;36.95
54306;BME280;66145;45.188;5.712;2024-03-08T12:06:59;98016.25;;;21.96;36.94
54306;BME280;66145;45.188;5.712;2024-03-08T12:09:26;98017.44;;;21.95;37.22
54306;BME280;66145;45.188;5.712;2024-03-08T12:11:51;98007.19;;;21.96;36.34
54306;BME280;66145;45.188;5.712;2024-03-08T12:14:17;98004.72;;;21.91;37.01
54306;BME280;66145;45.188;5.712;2024-03-08T12:16:43;98014.91;;;21.86;36.10
54306;BME280;66145;45.188;5.712;2024-03-08T12:19:09;97996.31;;;21.80;36.96
54306;BME280;66145;45.188;5.712;2024-03-08T12:21:36;97970.41;;;21.61;36.93
54306;BME280;66145;45.188;5.712;2024-03-08T12:24:06;97970.84;;;21.63;37.00
54306;BME280;66145;45.188;5.712;2024-03-08T12:26:38;97992.53;;;21.68;37.07
54306;BME280;66145;45.188;5.712;2024-03-08T12:29:22;97982.03;;;21.74;36.92
54306;BME280;66145;45.188;5.712;2024-03-08T12:31:53;97977.63;;;21.69;37.38
54306;BME280;66145;45.188;5.712;2024-03-08T12:34:19;97965.03;;;21.68;37.24
54306;BME280;66145;45.188;5.712;2024-03-08T12:36:49;97944.19;;;21.48;37.24
54306;BME280;66145;45.188;5.712;2024-03-08T12:39:16;97959.84;;;21.63;37.64
54306;BME280;66145;45.188;5.712;2024-03-08T12:41:43;97955.50;;;21.62;37.56
54306;BME280;66145;45.188;5.712;2024-03-08T12:44:09;97948.03;;;21.63;37.68
54306;BME280;66145;45.188;5.712;2024-03-08T12:46:37;97951.59;;;21.63;37.52
54306;BME280;66145;45.188;5.712;2024-03-08T12:49:08;97956.34;;;21.66;37.35
54306;BME280;66145;45.188;5.712;2024-03-08T12:51:34;97952.03;;;21.65;37.74
54306;BME280;66145;45.188;5.712;2024-03-08T12:54:00;97953.53;;;21.63;37.43
54306;BME280;66145;45.188;5.712;2024-03-08T12:56:30;97969.13;;;21.78;37.17
54306;BME280;66145;45.188;5.712;2024-03-08T12:58:58;97968.34;;;21.78;37.15
54306;BME280;66145;45.188;5.712;2024-03-08T13:01:23;97972.75;;;21.82;37.38
54306;BME280;66145;45.188;5.712;2024-03-08T13:03:49;97948.88;;;21.67;37.55
54306;BME280;66145;45.188;5.712;2024-03-08T13:06:18;97958.84;;;21.75;37.36